METAR AND TAF INFORMATION
METAR FOR LROP
ADDS - METARS form results

(1635 UTC 23 February 2019)
Data provider http://aviationweather.gov/metar/data/
 
METAR text: LROP 231630Z 08010KT CAVOK M03/M12 Q1038 R08R/09//95 R08L/09//95 NOSIG
Conditions at: LROP (BUCHAREST/OTOPEN, RO) observed 1630 UTC 23 February 2019
Temperature: -3.0°C (27°F)
Dewpoint: -12.0°C (10°F) [RH = 50%]
Pressure (altimeter): 30.65 inches Hg (1038.0 mb)
Winds: from the E (80 degrees) at 12 MPH (10 knots; 5.1 m/s)
Visibility: 6 or more miles (10+ km)
Ceiling: ceiling and visibility are OK
Clouds: unknown
Weather: no significant weather observed at this time

METAR text: LROP 231600Z 07012KT CAVOK M02/M12 Q1038 R08R/09//95 R08L/09//95 NOSIG
Conditions at: LROP (BUCHAREST/OTOPEN, RO) observed 1600 UTC 23 February 2019
Temperature: -2.0°C (28°F)
Dewpoint: -12.0°C (10°F) [RH = 46%]
Pressure (altimeter): 30.65 inches Hg (1038.0 mb)
Winds: from the ENE (70 degrees) at 14 MPH (12 knots; 6.2 m/s)
Visibility: 6 or more miles (10+ km)
Ceiling: ceiling and visibility are OK
Clouds: unknown
Weather: no significant weather observed at this time

Forecast for: LROP (BUCHAREST/OTOPEN, RO)
Text: TAF LROP 231100Z 2312/2412 04010KT CAVOK
Forecast period: 1200 to 1800 UTC 23 February 2019
Forecast type: FROM: standard forecast or significant change
Winds: from the NE (40 degrees) at 12 MPH (10 knots; 5.1 m/s)
Visibility: 6 or more miles 10+ km)
Ceiling: unknown
Clouds: missing
Weather: NSW  (no significant weather)
Text: BECMG 2318/2320 VRB04KT
Forecast period: 1800 UTC 23 February 2019 to 1200 UTC 24 February 2019
Forecast type: BECOMING: Conditions expected to become as follows by 2000 UTC 23 February 2019
Winds: variable direction winds at 5 MPH (4 knots; 2.1 m/s)
Visibility: 6 or more miles 10+ km)
Ceiling: unknown
Clouds: missing
Weather: NSW  (no significant weather)

 AIRPORT MAP

 RUNWAY INFORMATION
Runway 08L Runway length 11484 ft Runway width 148 ft
Runway elevation 313 ft Runway displaced threshold 0 ft Runway heading 84
Runway 26R Runway length 11484 ft Runway width 148 ft
Runway elevation 303 ft Runway displaced threshold 0 ft Runway heading 264
Runway 08R Runway length 11484 ft Runway width 148 ft
Runway elevation 314 ft Runway displaced threshold 0 ft Runway heading 84
Runway 26L Runway length 11484 ft Runway width 148 ft
Runway elevation 303 ft Runway displaced threshold 0 ft Runway heading 264

 AIRPORT FREQUENCIES
Type APP Name BUCURESTI Frequency 118.25 MHZ
Type ATIS Name OTOPENI AT Frequency 118.5 MHZ
Type GND Name OTOPENI GN Frequency 121.7 MHZ
Type TWR Name OTOPENI TW Frequency 120.9 MHZ

 AIRPORT NEAR NAVIGATION AIDS
Type VOR-DME Name Floresti Frequency 112200 KHZ
Type NDB Name Otopeni Frequency 349 KHZ
Type NDB Name Otopeni Frequency 268 KHZ
Type NDB Name Otopeni Frequency 370 KHZ
Type VOR-DME Name Strejnic Frequency 113200 KHZ



Copyright © 2011 - 2018 BirgenAir Virtual Airlines. All rights reserved. Developed by Goktug Unver